Terminal Aerodrome Forecast
Issued by NWS Shreveport, LA

Home | Current Version | Previous Version | Text Only | Print | Product List | Glossary On
Versions: 1 2 3 4 5 6 7 8 9 10 11 12 13 14 15 16 17 18 19
272
FTUS44 KSHV 222359
TAFLFK
TAF
KLFK 222359Z 2300/2324 29014G24KT P6SM BKN050
     FM230300 33010KT P6SM SKC
     FM231200 31008KT P6SM SKC
     FM232100 27005KT P6SM SKC=

USA.gov is the U.S. government's official web portal to all federal, state and local government web resources and services.